sensor_id;sensor_type;location;lat;lon;timestamp;temperature;humidity
12156;DHT22;6141;49.092;8.516;2023-02-15T00:01:35;3.00;57.30
12156;DHT22;6141;49.092;8.516;2023-02-15T00:04:04;3.00;59.00
12156;DHT22;6141;49.092;8.516;2023-02-15T00:06:32;3.10;59.30
12156;DHT22;6141;49.092;8.516;2023-02-15T00:09:01;3.30;58.30
12156;DHT22;6141;49.092;8.516;2023-02-15T00:11:30;3.50;57.60
12156;DHT22;6141;49.092;8.516;2023-02-15T00:14:19;3.50;56.20
12156;DHT22;6141;49.092;8.516;2023-02-15T00:16:48;3.30;56.30
12156;DHT22;6141;49.092;8.516;2023-02-15T00:19:17;3.50;56.30
12156;DHT22;6141;49.092;8.516;2023-02-15T00:21:46;3.50;56.90
12156;DHT22;6141;49.092;8.516;2023-02-15T00:24:15;3.60;56.20
12156;DHT22;6141;49.092;8.516;2023-02-15T00:26:44;3.70;55.70
12156;DHT22;6141;49.092;8.516;2023-02-15T00:29:14;3.60;56.00
12156;DHT22;6141;49.092;8.516;2023-02-15T00:31:44;3.50;56.30
12156;DHT22;6141;49.092;8.516;2023-02-15T00:34:13;3.50;56.80
12156;DHT22;6141;49.092;8.516;2023-02-15T00:36:42;3.70;56.80
12156;DHT22;6141;49.092;8.516;2023-02-15T00:39:10;3.60;57.00
12156;DHT22;6141;49.092;8.516;2023-02-15T00:41:38;3.60;57.10
12156;DHT22;6141;49.092;8.516;2023-02-15T00:44:06;3.70;56.40
12156;DHT22;6141;49.092;8.516;2023-02-15T00:46:35;3.70;56.30
12156;DHT22;6141;49.092;8.516;2023-02-15T00:49:04;3.70;56.40
12156;DHT22;6141;49.092;8.516;2023-02-15T00:51:32;3.70;56.50
12156;DHT22;6141;49.092;8.516;2023-02-15T00:54:01;3.60;57.30
12156;DHT22;6141;49.092;8.516;2023-02-15T00:56:29;3.60;57.70
12156;DHT22;6141;49.092;8.516;2023-02-15T00:58:57;3.70;57.30
12156;DHT22;6141;49.092;8.516;2023-02-15T01:01:25;3.70;56.90
12156;DHT22;6141;49.092;8.516;2023-02-15T01:03:53;3.70;57.80
12156;DHT22;6141;49.092;8.516;2023-02-15T01:06:23;3.80;57.60
12156;DHT22;6141;49.092;8.516;2023-02-15T01:08:51;3.90;57.40
12156;DHT22;6141;49.092;8.516;2023-02-15T01:11:21;4.10;56.50
12156;DHT22;6141;49.092;8.516;2023-02-15T01:13:50;4.20;55.90
12156;DHT22;6141;49.092;8.516;2023-02-15T01:16:18;4.10;55.30
12156;DHT22;6141;49.092;8.516;2023-02-15T01:18:46;4.00;56.00
12156;DHT22;6141;49.092;8.516;2023-02-15T01:21:15;4.00;56.20
12156;DHT22;6141;49.092;8.516;2023-02-15T01:23:45;4.10;56.20
12156;DHT22;6141;49.092;8.516;2023-02-15T01:26:13;4.10;56.40
12156;DHT22;6141;49.092;8.516;2023-02-15T01:28:43;4.00;56.20
12156;DHT22;6141;49.092;8.516;2023-02-15T01:31:16;4.20;56.90
12156;DHT22;6141;49.092;8.516;2023-02-15T01:33:45;4.30;55.70
12156;DHT22;6141;49.092;8.516;2023-02-15T01:36:13;4.40;55.40
12156;DHT22;6141;49.092;8.516;2023-02-15T01:38:45;4.30;55.50
12156;DHT22;6141;49.092;8.516;2023-02-15T01:41:13;4.30;55.30
12156;DHT22;6141;49.092;8.516;2023-02-15T01:43:50;4.30;55.70
12156;DHT22;6141;49.092;8.516;2023-02-15T01:46:19;4.20;55.90
12156;DHT22;6141;49.092;8.516;2023-02-15T01:48:50;4.20;56.40
12156;DHT22;6141;49.092;8.516;2023-02-15T01:51:20;4.10;56.50
12156;DHT22;6141;49.092;8.516;2023-02-15T01:53:53;4.10;57.00
12156;DHT22;6141;49.092;8.516;2023-02-15T01:56:25;4.10;57.20
12156;DHT22;6141;49.092;8.516;2023-02-15T01:58:55;4.20;56.80
12156;DHT22;6141;49.092;8.516;2023-02-15T02:01:24;4.20;57.10
12156;DHT22;6141;49.092;8.516;2023-02-15T02:03:57;4.30;58.00
12156;DHT22;6141;49.092;8.516;2023-02-15T02:06:29;4.30;57.00
12156;DHT22;6141;49.092;8.516;2023-02-15T02:09:02;4.30;56.90
12156;DHT22;6141;49.092;8.516;2023-02-15T02:11:30;4.30;56.80
12156;DHT22;6141;49.092;8.516;2023-02-15T02:13:58;4.40;57.00
12156;DHT22;6141;49.092;8.516;2023-02-15T02:16:28;4.40;57.00
12156;DHT22;6141;49.092;8.516;2023-02-15T02:19:05;4.40;56.00
12156;DHT22;6141;49.092;8.516;2023-02-15T02:21:48;4.40;56.40
12156;DHT22;6141;49.092;8.516;2023-02-15T02:24:27;4.30;56.60
12156;DHT22;6141;49.092;8.516;2023-02-15T02:29:59;4.30;56.90
12156;DHT22;6141;49.092;8.516;2023-02-15T02:35:24;4.30;57.50
12156;DHT22;6141;49.092;8.516;2023-02-15T02:37:57;4.30;57.50
12156;DHT22;6141;49.092;8.516;2023-02-15T02:40:30;4.40;57.30
12156;DHT22;6141;49.092;8.516;2023-02-15T02:43:05;4.30;57.70
12156;DHT22;6141;49.092;8.516;2023-02-15T02:45:37;4.40;57.80
12156;DHT22;6141;49.092;8.516;2023-02-15T02:48:09;4.40;57.70
12156;DHT22;6141;49.092;8.516;2023-02-15T02:50:40;4.60;57.10
12156;DHT22;6141;49.092;8.516;2023-02-15T02:53:08;4.40;57.10
12156;DHT22;6141;49.092;8.516;2023-02-15T02:55:39;4.40;57.40
12156;DHT22;6141;49.092;8.516;2023-02-15T02:58:09;4.30;56.80
12156;DHT22;6141;49.092;8.516;2023-02-15T03:00:40;4.20;57.50
12156;DHT22;6141;49.092;8.516;2023-02-15T03:03:13;4.20;58.40
12156;DHT22;6141;49.092;8.516;2023-02-15T03:05:45;4.20;58.90
12156;DHT22;6141;49.092;8.516;2023-02-15T03:08:15;4.20;58.30
12156;DHT22;6141;49.092;8.516;2023-02-15T03:10:48;4.30;58.40
12156;DHT22;6141;49.092;8.516;2023-02-15T03:13:19;4.30;57.90
12156;DHT22;6141;49.092;8.516;2023-02-15T03:15:47;4.00;58.40
12156;DHT22;6141;49.092;8.516;2023-02-15T03:18:35;3.80;60.70
12156;DHT22;6141;49.092;8.516;2023-02-15T03:21:05;3.70;63.00
12156;DHT22;6141;49.092;8.516;2023-02-15T03:23:39;3.50;67.00
12156;DHT22;6141;49.092;8.516;2023-02-15T03:26:09;3.40;72.20
12156;DHT22;6141;49.092;8.516;2023-02-15T03:28:39;3.40;72.70
12156;DHT22;6141;49.092;8.516;2023-02-15T03:31:10;3.50;72.70
12156;DHT22;6141;49.092;8.516;2023-02-15T03:33:41;3.60;73.60
12156;DHT22;6141;49.092;8.516;2023-02-15T03:36:14;3.70;72.60
12156;DHT22;6141;49.092;8.516;2023-02-15T03:38:47;3.90;72.60
12156;DHT22;6141;49.092;8.516;2023-02-15T03:41:16;4.00;71.30
12156;DHT22;6141;49.092;8.516;2023-02-15T03:43:47;4.10;69.70
12156;DHT22;6141;49.092;8.516;2023-02-15T03:46:20;4.20;68.70
12156;DHT22;6141;49.092;8.516;2023-02-15T03:48:51;4.20;68.00
12156;DHT22;6141;49.092;8.516;2023-02-15T03:51:21;4.30;67.90
12156;DHT22;6141;49.092;8.516;2023-02-15T03:54:04;4.30;67.70
12156;DHT22;6141;49.092;8.516;2023-02-15T03:56:34;4.40;66.00
12156;DHT22;6141;49.092;8.516;2023-02-15T03:59:03;4.50;64.90
12156;DHT22;6141;49.092;8.516;2023-02-15T04:01:52;4.50;64.80
12156;DHT22;6141;49.092;8.516;2023-02-15T04:04:27;4.60;63.70
12156;DHT22;6141;49.092;8.516;2023-02-15T04:06:57;4.60;63.40
12156;DHT22;6141;49.092;8.516;2023-02-15T04:09:25;4.60;63.10
12156;DHT22;6141;49.092;8.516;2023-02-15T04:12:11;4.60;62.90
12156;DHT22;6141;49.092;8.516;2023-02-15T04:14:39;4.50;63.00
12156;DHT22;6141;49.092;8.516;2023-02-15T04:17:25;4.50;63.70
12156;DHT22;6141;49.092;8.516;2023-02-15T04:19:53;4.40;63.50
12156;DHT22;6141;49.092;8.516;2023-02-15T04:22:40;4.50;63.60
12156;DHT22;6141;49.092;8.516;2023-02-15T04:25:26;4.50;63.50
12156;DHT22;6141;49.092;8.516;2023-02-15T04:27:54;4.40;62.90
12156;DHT22;6141;49.092;8.516;2023-02-15T04:30:22;4.40;63.10
12156;DHT22;6141;49.092;8.516;2023-02-15T04:32:51;4.30;63.50
12156;DHT22;6141;49.092;8.516;2023-02-15T04:35:19;4.30;63.50
12156;DHT22;6141;49.092;8.516;2023-02-15T04:37:48;4.40;63.60
12156;DHT22;6141;49.092;8.516;2023-02-15T04:40:17;4.40;62.90
12156;DHT22;6141;49.092;8.516;2023-02-15T04:42:46;4.40;62.30
12156;DHT22;6141;49.092;8.516;2023-02-15T04:45:15;4.30;62.50
12156;DHT22;6141;49.092;8.516;2023-02-15T04:47:43;4.20;63.40
12156;DHT22;6141;49.092;8.516;2023-02-15T04:50:12;4.00;64.10
12156;DHT22;6141;49.092;8.516;2023-02-15T04:52:40;4.00;64.50
12156;DHT22;6141;49.092;8.516;2023-02-15T04:55:09;4.10;65.20
12156;DHT22;6141;49.092;8.516;2023-02-15T04:57:37;4.10;64.50
12156;DHT22;6141;49.092;8.516;2023-02-15T05:00:05;4.10;64.40
12156;DHT22;6141;49.092;8.516;2023-02-15T05:02:35;4.20;63.90
12156;DHT22;6141;49.092;8.516;2023-02-15T05:05:03;4.10;64.30
12156;DHT22;6141;49.092;8.516;2023-02-15T05:07:31;4.00;65.00
12156;DHT22;6141;49.092;8.516;2023-02-15T05:09:59;4.00;64.70
12156;DHT22;6141;49.092;8.516;2023-02-15T05:12:29;4.00;65.20
12156;DHT22;6141;49.092;8.516;2023-02-15T05:14:57;4.10;65.00
12156;DHT22;6141;49.092;8.516;2023-02-15T05:17:25;3.90;64.70
12156;DHT22;6141;49.092;8.516;2023-02-15T05:19:53;3.70;66.70
12156;DHT22;6141;49.092;8.516;2023-02-15T05:22:21;3.80;67.00
12156;DHT22;6141;49.092;8.516;2023-02-15T05:24:49;3.80;67.90
12156;DHT22;6141;49.092;8.516;2023-02-15T05:27:36;3.80;67.60
12156;DHT22;6141;49.092;8.516;2023-02-15T05:30:22;3.70;67.10
12156;DHT22;6141;49.092;8.516;2023-02-15T05:32:50;3.80;67.20
12156;DHT22;6141;49.092;8.516;2023-02-15T05:35:18;3.90;66.80
12156;DHT22;6141;49.092;8.516;2023-02-15T05:37:46;4.00;66.10
12156;DHT22;6141;49.092;8.516;2023-02-15T05:40:14;4.00;65.70
12156;DHT22;6141;49.092;8.516;2023-02-15T05:42:43;4.20;65.00
12156;DHT22;6141;49.092;8.516;2023-02-15T05:45:11;4.10;64.90
12156;DHT22;6141;49.092;8.516;2023-02-15T05:47:39;4.10;65.50
12156;DHT22;6141;49.092;8.516;2023-02-15T05:50:08;4.20;64.20
12156;DHT22;6141;49.092;8.516;2023-02-15T05:52:36;4.20;63.70
12156;DHT22;6141;49.092;8.516;2023-02-15T05:55:05;4.20;63.40
12156;DHT22;6141;49.092;8.516;2023-02-15T05:57:35;4.10;63.40
12156;DHT22;6141;49.092;8.516;2023-02-15T06:00:05;4.20;63.80
12156;DHT22;6141;49.092;8.516;2023-02-15T06:02:42;4.20;63.40
12156;DHT22;6141;49.092;8.516;2023-02-15T06:05:10;4.00;63.30
12156;DHT22;6141;49.092;8.516;2023-02-15T06:07:38;3.90;64.50
12156;DHT22;6141;49.092;8.516;2023-02-15T06:10:06;3.90;65.10
12156;DHT22;6141;49.092;8.516;2023-02-15T06:12:35;3.80;65.00
12156;DHT22;6141;49.092;8.516;2023-02-15T06:15:05;4.00;65.40
12156;DHT22;6141;49.092;8.516;2023-02-15T06:17:33;4.00;65.00
12156;DHT22;6141;49.092;8.516;2023-02-15T06:20:01;4.10;65.00
12156;DHT22;6141;49.092;8.516;2023-02-15T06:22:29;4.10;64.50
12156;DHT22;6141;49.092;8.516;2023-02-15T06:24:57;4.10;63.60
12156;DHT22;6141;49.092;8.516;2023-02-15T06:27:25;4.20;63.40
12156;DHT22;6141;49.092;8.516;2023-02-15T06:29:53;4.20;63.20
12156;DHT22;6141;49.092;8.516;2023-02-15T06:32:23;4.20;63.40
12156;DHT22;6141;49.092;8.516;2023-02-15T06:34:51;4.30;63.50
12156;DHT22;6141;49.092;8.516;2023-02-15T06:37:19;4.10;62.50
12156;DHT22;6141;49.092;8.516;2023-02-15T06:39:47;4.10;63.30
12156;DHT22;6141;49.092;8.516;2023-02-15T06:42:15;4.10;63.30
12156;DHT22;6141;49.092;8.516;2023-02-15T06:44:44;3.80;63.70
12156;DHT22;6141;49.092;8.516;2023-02-15T06:47:12;3.50;66.90
12156;DHT22;6141;49.092;8.516;2023-02-15T06:49:42;3.40;67.30
12156;DHT22;6141;49.092;8.516;2023-02-15T06:52:10;3.30;68.10
12156;DHT22;6141;49.092;8.516;2023-02-15T06:54:40;3.20;69.50
12156;DHT22;6141;49.092;8.516;2023-02-15T06:57:08;3.20;69.90
12156;DHT22;6141;49.092;8.516;2023-02-15T06:59:36;3.10;71.10
12156;DHT22;6141;49.092;8.516;2023-02-15T07:02:05;3.20;71.40
12156;DHT22;6141;49.092;8.516;2023-02-15T07:04:33;3.40;70.40
12156;DHT22;6141;49.092;8.516;2023-02-15T07:07:03;3.40;70.70
12156;DHT22;6141;49.092;8.516;2023-02-15T07:09:31;3.40;69.80
12156;DHT22;6141;49.092;8.516;2023-02-15T07:11:59;3.40;71.00
12156;DHT22;6141;49.092;8.516;2023-02-15T07:14:44;3.30;72.20
12156;DHT22;6141;49.092;8.516;2023-02-15T07:17:12;3.40;70.60
12156;DHT22;6141;49.092;8.516;2023-02-15T07:20:00;3.50;70.10
12156;DHT22;6141;49.092;8.516;2023-02-15T07:22:30;3.60;69.50
12156;DHT22;6141;49.092;8.516;2023-02-15T07:25:00;3.70;68.40
12156;DHT22;6141;49.092;8.516;2023-02-15T07:27:28;3.60;68.60
12156;DHT22;6141;49.092;8.516;2023-02-15T07:29:57;3.60;70.10
12156;DHT22;6141;49.092;8.516;2023-02-15T07:32:27;3.70;68.80
12156;DHT22;6141;49.092;8.516;2023-02-15T07:34:55;3.60;67.70
12156;DHT22;6141;49.092;8.516;2023-02-15T07:37:23;3.40;68.90
12156;DHT22;6141;49.092;8.516;2023-02-15T07:39:52;3.20;70.10
12156;DHT22;6141;49.092;8.516;2023-02-15T07:42:20;3.20;71.40
12156;DHT22;6141;49.092;8.516;2023-02-15T07:44:49;3.20;71.00
12156;DHT22;6141;49.092;8.516;2023-02-15T07:47:17;3.30;70.90
12156;DHT22;6141;49.092;8.516;2023-02-15T07:49:45;3.30;71.10
12156;DHT22;6141;49.092;8.516;2023-02-15T07:52:16;3.40;69.70
12156;DHT22;6141;49.092;8.516;2023-02-15T07:54:44;3.10;70.50
12156;DHT22;6141;49.092;8.516;2023-02-15T07:57:13;2.90;71.80
12156;DHT22;6141;49.092;8.516;2023-02-15T07:59:41;2.80;72.60
12156;DHT22;6141;49.092;8.516;2023-02-15T08:02:09;2.70;75.10
12156;DHT22;6141;49.092;8.516;2023-02-15T08:04:37;2.80;76.80
12156;DHT22;6141;49.092;8.516;2023-02-15T08:07:06;2.90;77.60
12156;DHT22;6141;49.092;8.516;2023-02-15T08:09:34;3.10;76.30
12156;DHT22;6141;49.092;8.516;2023-02-15T08:12:02;3.20;74.90
12156;DHT22;6141;49.092;8.516;2023-02-15T08:14:33;3.30;74.10
12156;DHT22;6141;49.092;8.516;2023-02-15T08:17:00;3.40;73.50
12156;DHT22;6141;49.092;8.516;2023-02-15T08:19:29;3.40;72.90
12156;DHT22;6141;49.092;8.516;2023-02-15T08:21:59;3.40;73.20
12156;DHT22;6141;49.092;8.516;2023-02-15T08:24:29;3.40;72.60
12156;DHT22;6141;49.092;8.516;2023-02-15T08:26:57;3.40;72.20
12156;DHT22;6141;49.092;8.516;2023-02-15T08:29:26;3.50;72.30
12156;DHT22;6141;49.092;8.516;2023-02-15T08:31:56;3.20;72.10
12156;DHT22;6141;49.092;8.516;2023-02-15T08:34:25;3.00;74.20
12156;DHT22;6141;49.092;8.516;2023-02-15T08:36:53;2.80;74.50
12156;DHT22;6141;49.092;8.516;2023-02-15T08:39:21;2.80;76.30
12156;DHT22;6141;49.092;8.516;2023-02-15T08:41:50;2.80;77.20
12156;DHT22;6141;49.092;8.516;2023-02-15T08:44:18;2.90;77.40
12156;DHT22;6141;49.092;8.516;2023-02-15T08:46:47;2.90;76.80
12156;DHT22;6141;49.092;8.516;2023-02-15T08:49:17;2.90;75.80
12156;DHT22;6141;49.092;8.516;2023-02-15T08:51:45;3.10;77.30
12156;DHT22;6141;49.092;8.516;2023-02-15T08:54:14;3.30;75.80
12156;DHT22;6141;49.092;8.516;2023-02-15T08:56:43;3.30;74.20
12156;DHT22;6141;49.092;8.516;2023-02-15T08:59:12;3.40;73.10
12156;DHT22;6141;49.092;8.516;2023-02-15T09:01:40;3.10;74.10
12156;DHT22;6141;49.092;8.516;2023-02-15T09:04:09;2.90;74.90
12156;DHT22;6141;49.092;8.516;2023-02-15T09:06:39;2.80;75.90
12156;DHT22;6141;49.092;8.516;2023-02-15T09:09:08;2.90;76.90
12156;DHT22;6141;49.092;8.516;2023-02-15T09:11:37;2.90;76.80
12156;DHT22;6141;49.092;8.516;2023-02-15T09:14:06;2.90;77.40
12156;DHT22;6141;49.092;8.516;2023-02-15T09:16:35;3.10;77.20
12156;DHT22;6141;49.092;8.516;2023-02-15T09:19:04;3.30;76.50
12156;DHT22;6141;49.092;8.516;2023-02-15T09:21:33;3.50;75.10
12156;DHT22;6141;49.092;8.516;2023-02-15T09:24:04;3.50;73.10
12156;DHT22;6141;49.092;8.516;2023-02-15T09:26:33;3.30;73.60
12156;DHT22;6141;49.092;8.516;2023-02-15T09:29:02;3.00;74.80
12156;DHT22;6141;49.092;8.516;2023-02-15T09:31:31;2.80;77.60
12156;DHT22;6141;49.092;8.516;2023-02-15T09:34:00;2.70;80.50
12156;DHT22;6141;49.092;8.516;2023-02-15T09:36:30;2.60;79.80
12156;DHT22;6141;49.092;8.516;2023-02-15T09:38:59;2.40;83.30
12156;DHT22;6141;49.092;8.516;2023-02-15T09:41:37;2.50;84.50
12156;DHT22;6141;49.092;8.516;2023-02-15T09:44:11;2.70;84.50
12156;DHT22;6141;49.092;8.516;2023-02-15T09:46:47;2.80;82.10
12156;DHT22;6141;49.092;8.516;2023-02-15T09:49:22;2.90;82.20
12156;DHT22;6141;49.092;8.516;2023-02-15T09:52:03;3.10;82.00
12156;DHT22;6141;49.092;8.516;2023-02-15T09:54:43;3.10;80.80
12156;DHT22;6141;49.092;8.516;2023-02-15T09:57:16;3.10;80.70
12156;DHT22;6141;49.092;8.516;2023-02-15T09:59:47;3.10;81.10
12156;DHT22;6141;49.092;8.516;2023-02-15T10:02:22;3.10;81.10
12156;DHT22;6141;49.092;8.516;2023-02-15T10:04:54;3.10;81.10
12156;DHT22;6141;49.092;8.516;2023-02-15T10:07:29;3.00;81.00
12156;DHT22;6141;49.092;8.516;2023-02-15T10:10:06;3.00;81.00
12156;DHT22;6141;49.092;8.516;2023-02-15T10:12:49;2.90;80.90
12156;DHT22;6141;49.092;8.516;2023-02-15T10:15:27;3.10;81.10
12156;DHT22;6141;49.092;8.516;2023-02-15T10:18:05;3.30;80.50
12156;DHT22;6141;49.092;8.516;2023-02-15T10:20:40;3.30;80.10
12156;DHT22;6141;49.092;8.516;2023-02-15T10:23:14;3.20;79.20
12156;DHT22;6141;49.092;8.516;2023-02-15T10:25:46;3.10;80.50
12156;DHT22;6141;49.092;8.516;2023-02-15T10:28:18;3.30;79.60
12156;DHT22;6141;49.092;8.516;2023-02-15T10:30:47;3.50;78.20
12156;DHT22;6141;49.092;8.516;2023-02-15T10:33:25;3.70;76.70
12156;DHT22;6141;49.092;8.516;2023-02-15T10:36:01;3.80;75.00
12156;DHT22;6141;49.092;8.516;2023-02-15T10:38:33;3.70;73.30
12156;DHT22;6141;49.092;8.516;2023-02-15T10:41:09;3.80;73.70
12156;DHT22;6141;49.092;8.516;2023-02-15T10:46:27;3.50;74.90
12156;DHT22;6141;49.092;8.516;2023-02-15T10:49:12;3.30;76.70
12156;DHT22;6141;49.092;8.516;2023-02-15T10:51:45;3.40;76.80
12156;DHT22;6141;49.092;8.516;2023-02-15T10:54:21;3.60;75.60
12156;DHT22;6141;49.092;8.516;2023-02-15T10:56:55;3.70;75.00
12156;DHT22;6141;49.092;8.516;2023-02-15T10:59:29;3.90;73.40
12156;DHT22;6141;49.092;8.516;2023-02-15T11:02:02;3.90;72.70
12156;DHT22;6141;49.092;8.516;2023-02-15T11:07:15;4.10;72.80
12156;DHT22;6141;49.092;8.516;2023-02-15T11:09:44;4.10;72.80
12156;DHT22;6141;49.092;8.516;2023-02-15T11:12:15;4.10;72.80
12156;DHT22;6141;49.092;8.516;2023-02-15T11:14:46;4.20;72.70
12156;DHT22;6141;49.092;8.516;2023-02-15T11:17:19;4.30;72.00
12156;DHT22;6141;49.092;8.516;2023-02-15T11:19:50;4.10;71.40
12156;DHT22;6141;49.092;8.516;2023-02-15T11:22:21;4.00;72.70
12156;DHT22;6141;49.092;8.516;2023-02-15T11:24:49;3.70;72.60
12156;DHT22;6141;49.092;8.516;2023-02-15T11:27:19;3.50;74.70
12156;DHT22;6141;49.092;8.516;2023-02-15T11:29:52;3.50;74.70
12156;DHT22;6141;49.092;8.516;2023-02-15T11:32:23;3.40;75.90
12156;DHT22;6141;49.092;8.516;2023-02-15T11:34:53;3.50;76.10
12156;DHT22;6141;49.092;8.516;2023-02-15T11:37:24;3.70;75.60
12156;DHT22;6141;49.092;8.516;2023-02-15T11:39:55;3.80;74.80
12156;DHT22;6141;49.092;8.516;2023-02-15T11:42:23;3.90;74.00
12156;DHT22;6141;49.092;8.516;2023-02-15T11:44:56;4.10;72.00
12156;DHT22;6141;49.092;8.516;2023-02-15T11:47:28;3.80;73.20
12156;DHT22;6141;49.092;8.516;2023-02-15T11:49:57;3.50;74.90
12156;DHT22;6141;49.092;8.516;2023-02-15T11:52:25;3.60;76.00
12156;DHT22;6141;49.092;8.516;2023-02-15T11:54:55;3.70;75.10
12156;DHT22;6141;49.092;8.516;2023-02-15T11:57:25;3.90;74.90
12156;DHT22;6141;49.092;8.516;2023-02-15T11:59:56;4.00;73.00
12156;DHT22;6141;49.092;8.516;2023-02-15T12:02:25;4.00;72.70
12156;DHT22;6141;49.092;8.516;2023-02-15T12:04:58;4.00;73.30
12156;DHT22;6141;49.092;8.516;2023-02-15T12:07:28;4.20;72.90
12156;DHT22;6141;49.092;8.516;2023-02-15T12:10:00;4.50;72.70
12156;DHT22;6141;49.092;8.516;2023-02-15T12:12:31;4.60;70.80
12156;DHT22;6141;49.092;8.516;2023-02-15T12:15:00;4.80;69.50
12156;DHT22;6141;49.092;8.516;2023-02-15T12:17:29;5.00;68.80
12156;DHT22;6141;49.092;8.516;2023-02-15T12:19:59;5.10;69.60
12156;DHT22;6141;49.092;8.516;2023-02-15T12:22:29;5.20;67.10
12156;DHT22;6141;49.092;8.516;2023-02-15T12:24:58;5.30;66.70
12156;DHT22;6141;49.092;8.516;2023-02-15T12:27:28;5.50;67.00
12156;DHT22;6141;49.092;8.516;2023-02-15T12:29:58;5.50;64.40
12156;DHT22;6141;49.092;8.516;2023-02-15T12:32:28;5.60;64.00
12156;DHT22;6141;49.092;8.516;2023-02-15T12:35:01;5.80;62.60
12156;DHT22;6141;49.092;8.516;2023-02-15T12:37:30;6.10;59.90
12156;DHT22;6141;49.092;8.516;2023-02-15T12:39:59;6.10;57.50
12156;DHT22;6141;49.092;8.516;2023-02-15T12:42:28;6.00;58.50
12156;DHT22;6141;49.092;8.516;2023-02-15T12:45:19;6.00;58.30
12156;DHT22;6141;49.092;8.516;2023-02-15T12:47:48;5.90;58.70
12156;DHT22;6141;49.092;8.516;2023-02-15T12:50:36;5.90;59.20
12156;DHT22;6141;49.092;8.516;2023-02-15T12:53:06;6.00;58.70
12156;DHT22;6141;49.092;8.516;2023-02-15T12:55:35;6.20;57.50
12156;DHT22;6141;49.092;8.516;2023-02-15T12:58:08;6.20;57.30
12156;DHT22;6141;49.092;8.516;2023-02-15T13:00:36;6.40;56.10
12156;DHT22;6141;49.092;8.516;2023-02-15T13:03:04;6.40;54.70
12156;DHT22;6141;49.092;8.516;2023-02-15T13:05:34;6.40;54.40
12156;DHT22;6141;49.092;8.516;2023-02-15T13:08:10;6.50;54.50
12156;DHT22;6141;49.092;8.516;2023-02-15T13:10:40;6.60;53.10
12156;DHT22;6141;49.092;8.516;2023-02-15T13:13:16;6.50;52.60
12156;DHT22;6141;49.092;8.516;2023-02-15T13:15:49;6.50;53.20
12156;DHT22;6141;49.092;8.516;2023-02-15T13:18:28;6.60;54.60
12156;DHT22;6141;49.092;8.516;2023-02-15T13:20:56;6.80;54.40
12156;DHT22;6141;49.092;8.516;2023-02-15T13:23:27;6.70;54.70
12156;DHT22;6141;49.092;8.516;2023-02-15T13:25:57;6.60;54.60
12156;DHT22;6141;49.092;8.516;2023-02-15T13:28:26;6.60;54.60
12156;DHT22;6141;49.092;8.516;2023-02-15T13:30:59;6.40;55.50
12156;DHT22;6141;49.092;8.516;2023-02-15T13:33:30;6.60;55.30
12156;DHT22;6141;49.092;8.516;2023-02-15T13:36:01;6.80;54.90
12156;DHT22;6141;49.092;8.516;2023-02-15T13:38:44;6.90;53.30
12156;DHT22;6141;49.092;8.516;2023-02-15T13:41:14;7.00;55.00
12156;DHT22;6141;49.092;8.516;2023-02-15T13:43:47;7.20;53.00
12156;DHT22;6141;49.092;8.516;2023-02-15T13:46:23;7.40;52.50
12156;DHT22;6141;49.092;8.516;2023-02-15T13:48:59;7.70;50.40
12156;DHT22;6141;49.092;8.516;2023-02-15T13:51:34;7.80;50.20
12156;DHT22;6141;49.092;8.516;2023-02-15T13:54:13;8.00;49.90
12156;DHT22;6141;49.092;8.516;2023-02-15T13:56:47;7.90;48.20
12156;DHT22;6141;49.092;8.516;2023-02-15T13:59:24;8.00;49.30
12156;DHT22;6141;49.092;8.516;2023-02-15T14:01:56;8.30;48.10
12156;DHT22;6141;49.092;8.516;2023-02-15T14:07:17;8.50;47.60
12156;DHT22;6141;49.092;8.516;2023-02-15T14:09:51;8.60;45.10
12156;DHT22;6141;49.092;8.516;2023-02-15T14:12:25;8.40;46.20
12156;DHT22;6141;49.092;8.516;2023-02-15T14:15:00;8.30;46.90
12156;DHT22;6141;49.092;8.516;2023-02-15T14:17:37;8.50;46.30
12156;DHT22;6141;49.092;8.516;2023-02-15T14:20:08;8.60;46.70
12156;DHT22;6141;49.092;8.516;2023-02-15T14:22:43;8.80;44.60
12156;DHT22;6141;49.092;8.516;2023-02-15T14:25:16;8.90;44.70
12156;DHT22;6141;49.092;8.516;2023-02-15T14:27:50;9.20;43.50
12156;DHT22;6141;49.092;8.516;2023-02-15T14:30:22;9.30;43.30
12156;DHT22;6141;49.092;8.516;2023-02-15T14:32:54;9.50;42.60
12156;DHT22;6141;49.092;8.516;2023-02-15T14:35:24;9.70;40.80
12156;DHT22;6141;49.092;8.516;2023-02-15T14:37:55;9.80;40.30
12156;DHT22;6141;49.092;8.516;2023-02-15T14:40:31;9.70;40.70
12156;DHT22;6141;49.092;8.516;2023-02-15T14:43:19;9.80;41.40
12156;DHT22;6141;49.092;8.516;2023-02-15T14:45:52;9.90;40.80
12156;DHT22;6141;49.092;8.516;2023-02-15T14:48:21;10.00;38.30
12156;DHT22;6141;49.092;8.516;2023-02-15T14:50:53;10.20;38.50
12156;DHT22;6141;49.092;8.516;2023-02-15T14:53:32;10.20;37.10
12156;DHT22;6141;49.092;8.516;2023-02-15T14:56:12;10.30;37.50
12156;DHT22;6141;49.092;8.516;2023-02-15T15:01:36;10.20;36.10
12156;DHT22;6141;49.092;8.516;2023-02-15T15:04:05;10.10;36.50
12156;DHT22;6141;49.092;8.516;2023-02-15T15:06:36;10.00;36.70
12156;DHT22;6141;49.092;8.516;2023-02-15T15:09:10;10.00;36.60
12156;DHT22;6141;49.092;8.516;2023-02-15T15:11:41;10.20;36.60
12156;DHT22;6141;49.092;8.516;2023-02-15T15:14:13;10.10;36.10
12156;DHT22;6141;49.092;8.516;2023-02-15T15:16:59;9.60;38.00
12156;DHT22;6141;49.092;8.516;2023-02-15T15:22:18;9.10;40.60
12156;DHT22;6141;49.092;8.516;2023-02-15T15:24:51;9.00;41.80
12156;DHT22;6141;49.092;8.516;2023-02-15T15:32:52;8.50;42.50
12156;DHT22;6141;49.092;8.516;2023-02-15T15:35:24;8.30;44.10
12156;DHT22;6141;49.092;8.516;2023-02-15T15:38:15;8.20;44.00
12156;DHT22;6141;49.092;8.516;2023-02-15T15:46:45;8.70;43.50
12156;DHT22;6141;49.092;8.516;2023-02-15T15:49:19;8.80;42.60
12156;DHT22;6141;49.092;8.516;2023-02-15T15:51:47;8.80;42.60
12156;DHT22;6141;49.092;8.516;2023-02-15T15:54:17;8.80;42.10
12156;DHT22;6141;49.092;8.516;2023-02-15T15:56:46;8.80;43.20
12156;DHT22;6141;49.092;8.516;2023-02-15T15:59:17;8.80;42.10
12156;DHT22;6141;49.092;8.516;2023-02-15T16:01:46;8.50;42.30
12156;DHT22;6141;49.092;8.516;2023-02-15T16:04:22;8.60;42.90
12156;DHT22;6141;49.092;8.516;2023-02-15T16:06:52;8.70;42.20
12156;DHT22;6141;49.092;8.516;2023-02-15T16:09:21;8.80;42.30
12156;DHT22;6141;49.092;8.516;2023-02-15T16:11:50;8.80;41.70
12156;DHT22;6141;49.092;8.516;2023-02-15T16:14:22;8.90;41.70
12156;DHT22;6141;49.092;8.516;2023-02-15T16:16:54;8.70;41.80
12156;DHT22;6141;49.092;8.516;2023-02-15T16:19:26;8.50;42.70
12156;DHT22;6141;49.092;8.516;2023-02-15T16:21:57;8.50;42.80
12156;DHT22;6141;49.092;8.516;2023-02-15T16:24:28;8.50;42.70
12156;DHT22;6141;49.092;8.516;2023-02-15T16:27:13;8.50;42.00
12156;DHT22;6141;49.092;8.516;2023-02-15T16:29:43;8.50;41.10
12156;DHT22;6141;49.092;8.516;2023-02-15T16:32:18;8.60;41.10
12156;DHT22;6141;49.092;8.516;2023-02-15T16:34:53;8.60;41.10
12156;DHT22;6141;49.092;8.516;2023-02-15T16:37:24;8.60;41.40
12156;DHT22;6141;49.092;8.516;2023-02-15T16:39:54;8.50;41.60
12156;DHT22;6141;49.092;8.516;2023-02-15T16:42:23;8.50;41.20
12156;DHT22;6141;49.092;8.516;2023-02-15T16:44:52;8.40;41.50
12156;DHT22;6141;49.092;8.516;2023-02-15T16:47:23;8.30;41.50
12156;DHT22;6141;49.092;8.516;2023-02-15T16:49:52;8.30;41.40
12156;DHT22;6141;49.092;8.516;2023-02-15T16:52:24;8.30;41.00
12156;DHT22;6141;49.092;8.516;2023-02-15T16:54:54;8.30;41.70
12156;DHT22;6141;49.092;8.516;2023-02-15T16:57:23;8.20;41.00
12156;DHT22;6141;49.092;8.516;2023-02-15T16:59:53;7.90;41.30